createdAt,value
2023-06-11T00:00:10.957Z,20.42
2023-06-11T00:01:10.964Z,20.39
2023-06-11T00:02:10.948Z,20.38
2023-06-11T00:03:11.038Z,20.32
2023-06-11T00:04:10.979Z,20.28
2023-06-11T00:05:11.249Z,20.24
2023-06-11T00:06:10.901Z,20.23
2023-06-11T00:07:10.904Z,20.18
2023-06-11T00:08:10.889Z,20.14
2023-06-11T00:09:10.865Z,20.06
2023-06-11T00:10:10.832Z,19.98
2023-06-11T00:11:10.877Z,19.94
2023-06-11T00:12:10.806Z,19.88
2023-06-11T00:13:10.826Z,19.83
2023-06-11T00:14:10.779Z,19.81
2023-06-11T00:15:11.000Z,19.81
2023-06-11T00:16:10.796Z,19.80
2023-06-11T00:17:10.755Z,19.86
2023-06-11T00:18:10.775Z,19.88
2023-06-11T00:19:10.757Z,19.92
2023-06-11T00:20:10.884Z,19.91
2023-06-11T00:21:10.724Z,19.88
2023-06-11T00:22:10.668Z,19.88
2023-06-11T00:23:10.701Z,19.88
2023-06-11T00:24:10.747Z,19.86
2023-06-11T00:25:11.005Z,19.84
2023-06-11T00:26:10.634Z,19.83
2023-06-11T00:27:10.629Z,19.83
2023-06-11T00:28:10.591Z,19.83
2023-06-11T00:29:10.617Z,19.80
2023-06-11T00:30:10.587Z,19.77
2023-06-11T00:31:10.589Z,19.69
2023-06-11T00:32:10.561Z,19.66
2023-06-11T00:33:10.653Z,19.62
2023-06-11T00:34:10.515Z,19.59
2023-06-11T00:35:11.185Z,19.55
2023-06-11T00:36:10.507Z,19.51
2023-06-11T00:37:10.544Z,19.48
2023-06-11T00:38:10.480Z,19.50
2023-06-11T00:39:10.471Z,19.54
2023-06-11T00:40:10.432Z,19.55
2023-06-11T00:41:10.451Z,19.55
2023-06-11T00:42:10.430Z,19.54
2023-06-11T00:43:10.413Z,19.55
2023-06-11T00:44:10.370Z,19.55
2023-06-11T00:45:10.673Z,19.54
2023-06-11T00:46:10.383Z,19.55
2023-06-11T00:47:10.363Z,19.56
2023-06-11T00:48:10.401Z,19.59
2023-06-11T00:49:10.328Z,19.61
2023-06-11T00:50:10.301Z,19.63
2023-06-11T00:51:10.323Z,19.66
2023-06-11T00:52:11.627Z,19.66
2023-06-11T00:53:10.301Z,19.68
2023-06-11T00:54:10.258Z,19.69
2023-06-11T00:55:10.703Z,19.68
2023-06-11T00:56:10.210Z,19.69
2023-06-11T00:57:10.241Z,19.71
2023-06-11T00:58:10.205Z,19.74
2023-06-11T00:59:10.191Z,19.77
2023-06-11T01:00:10.187Z,19.78
2023-06-11T01:01:10.233Z,19.83
2023-06-11T01:02:10.149Z,19.84
2023-06-11T01:03:10.172Z,19.84
2023-06-11T01:04:10.214Z,19.87
2023-06-11T01:05:10.733Z,19.91
2023-06-11T01:06:10.074Z,19.95
2023-06-11T01:07:10.114Z,19.95
2023-06-11T01:08:10.060Z,19.99
2023-06-11T01:09:10.097Z,19.99
2023-06-11T01:10:10.024Z,20.01
2023-06-11T01:11:11.283Z,20.02
2023-06-11T01:12:10.006Z,20.03
2023-06-11T01:13:10.032Z,20.06
2023-06-11T01:14:09.993Z,20.10
2023-06-11T01:15:10.135Z,20.16
2023-06-11T01:16:09.955Z,20.17
2023-06-11T01:17:09.954Z,20.17
2023-06-11T01:18:09.973Z,20.13
2023-06-11T01:19:09.949Z,20.10
2023-06-11T01:20:09.899Z,20.05
2023-06-11T01:21:09.907Z,20.01
2023-06-11T01:22:09.891Z,19.98
2023-06-11T01:23:09.868Z,19.95
2023-06-11T01:24:09.873Z,19.94
2023-06-11T01:25:10.070Z,19.92
2023-06-11T01:26:09.809Z,19.91
2023-06-11T01:27:09.829Z,19.88
2023-06-11T01:28:09.822Z,19.80
2023-06-11T01:29:09.805Z,19.74
2023-06-11T01:30:09.781Z,19.66
2023-06-11T01:31:09.805Z,19.63
2023-06-11T01:32:09.724Z,19.62
2023-06-11T01:33:09.946Z,19.62
2023-06-11T01:34:09.748Z,19.55
2023-06-11T01:35:09.991Z,19.48
2023-06-11T01:36:09.757Z,19.46
2023-06-11T01:37:09.643Z,19.44
2023-06-11T01:38:09.726Z,19.44
2023-06-11T01:39:09.638Z,19.40
2023-06-11T01:40:09.651Z,19.36
2023-06-11T01:41:09.625Z,19.29
2023-06-11T01:42:09.656Z,19.22
2023-06-11T01:43:09.583Z,19.16
2023-06-11T01:44:09.604Z,19.14
2023-06-11T01:45:10.102Z,19.11
2023-06-11T01:46:09.613Z,19.08
2023-06-11T01:47:09.521Z,19.08
2023-06-11T01:48:09.575Z,19.07
2023-06-11T01:49:09.501Z,19.06
2023-06-11T01:50:09.562Z,19.08
2023-06-11T01:51:09.511Z,19.08
2023-06-11T01:52:09.502Z,19.10
2023-06-11T01:53:09.444Z,19.14
2023-06-11T01:54:09.463Z,19.13
2023-06-11T01:55:09.780Z,19.16
2023-06-11T01:56:09.452Z,19.16
2023-06-11T01:57:09.392Z,19.13
2023-06-11T01:58:09.423Z,19.08
2023-06-11T01:59:09.398Z,19.04
2023-06-11T02:00:09.375Z,19.00
2023-06-11T02:01:09.369Z,18.99
2023-06-11T02:02:09.469Z,18.95
2023-06-11T02:03:09.454Z,18.95
2023-06-11T02:04:09.388Z,18.94
2023-06-11T02:05:09.600Z,18.99
2023-06-11T02:06:09.292Z,19.02
2023-06-11T02:07:09.288Z,19.02
2023-06-11T02:08:09.295Z,19.04
2023-06-11T02:09:09.230Z,19.08
2023-06-11T02:10:09.243Z,19.11
2023-06-11T02:11:09.221Z,19.14
2023-06-11T02:12:09.255Z,19.14
2023-06-11T02:13:09.205Z,19.10
2023-06-11T02:14:09.202Z,19.08
2023-06-11T02:15:09.548Z,19.06
2023-06-11T02:16:09.216Z,19.06
2023-06-11T02:17:09.133Z,19.02
2023-06-11T02:18:09.195Z,18.99
2023-06-11T02:19:09.109Z,18.94
2023-06-11T02:20:09.125Z,18.91
2023-06-11T02:21:09.074Z,18.88
2023-06-11T02:22:09.129Z,18.82
2023-06-11T02:23:09.052Z,18.80
2023-06-11T02:24:09.095Z,18.78
2023-06-11T02:25:09.460Z,18.78
2023-06-11T02:26:09.051Z,18.80
2023-06-11T02:27:08.980Z,18.78
2023-06-11T02:28:09.001Z,18.78
2023-06-11T02:29:08.988Z,18.76
2023-06-11T02:30:08.990Z,18.75
2023-06-11T02:31:08.980Z,18.75
2023-06-11T02:32:09.057Z,18.72
2023-06-11T02:33:09.002Z,18.70
2023-06-11T02:34:08.959Z,18.65
2023-06-11T02:35:09.264Z,18.62
2023-06-11T02:36:08.930Z,18.58
2023-06-11T02:37:08.883Z,18.58
2023-06-11T02:38:08.880Z,18.57
2023-06-11T02:39:08.842Z,18.55
2023-06-11T02:40:08.855Z,18.55
2023-06-11T02:41:08.851Z,18.55
2023-06-11T02:42:08.830Z,18.57
2023-06-11T02:43:08.776Z,18.57
2023-06-11T02:44:08.824Z,18.62
2023-06-11T02:45:08.951Z,18.60
2023-06-11T02:46:08.861Z,18.60
2023-06-11T02:47:08.735Z,18.58
2023-06-11T02:48:08.859Z,18.58
2023-06-11T02:49:08.694Z,18.57
2023-06-11T02:50:08.726Z,18.55
2023-06-11T02:51:08.686Z,18.52
2023-06-11T02:52:08.708Z,18.50
2023-06-11T02:53:08.647Z,18.45
2023-06-11T02:54:08.674Z,18.42
2023-06-11T02:55:08.849Z,18.41
2023-06-11T02:56:08.664Z,18.42
2023-06-11T02:57:08.628Z,18.42
2023-06-11T02:58:08.621Z,18.42
2023-06-11T02:59:08.579Z,18.39
2023-06-11T03:00:08.584Z,18.37
2023-06-11T03:01:08.570Z,18.33
2023-06-11T03:02:08.569Z,18.33
2023-06-11T03:03:08.595Z,18.30
2023-06-11T03:04:08.609Z,18.29
2023-06-11T03:05:08.763Z,18.26
2023-06-11T03:06:08.503Z,18.26
2023-06-11T03:07:08.490Z,18.27
2023-06-11T03:08:08.508Z,18.30
2023-06-11T03:09:08.469Z,18.30
2023-06-11T03:10:08.448Z,18.32
2023-06-11T03:11:08.396Z,18.32
2023-06-11T03:12:08.447Z,18.30
2023-06-11T03:13:08.397Z,18.27
2023-06-11T03:14:08.397Z,18.25
2023-06-11T03:15:08.541Z,18.20
2023-06-11T03:16:08.466Z,18.15
2023-06-11T03:17:08.356Z,18.15
2023-06-11T03:18:08.335Z,18.14
2023-06-11T03:19:08.324Z,18.11
2023-06-11T03:20:08.304Z,18.05
2023-06-11T03:21:08.279Z,18.02
2023-06-11T03:22:08.289Z,18.00
2023-06-11T03:23:08.289Z,17.97
2023-06-11T03:24:08.257Z,17.96
2023-06-11T03:25:08.419Z,17.92
2023-06-11T03:26:08.229Z,17.89
2023-06-11T03:27:08.185Z,17.87
2023-06-11T03:28:08.235Z,17.82
2023-06-11T03:29:08.173Z,17.79
2023-06-11T03:30:08.176Z,17.81
2023-06-11T03:31:08.145Z,17.81
2023-06-11T03:32:10.489Z,17.81
2023-06-11T03:33:08.123Z,17.78
2023-06-11T03:34:08.154Z,17.79
2023-06-11T03:35:08.288Z,17.79
2023-06-11T03:36:08.093Z,17.81
2023-06-11T03:37:08.051Z,17.84
2023-06-11T03:38:08.061Z,17.84
2023-06-11T03:39:08.041Z,17.84
2023-06-11T03:40:08.064Z,17.87
2023-06-11T03:41:08.017Z,17.89
2023-06-11T03:42:08.008Z,17.90
2023-06-11T03:43:07.992Z,17.87
2023-06-11T03:44:08.002Z,17.86
2023-06-11T03:45:08.063Z,17.82
2023-06-11T03:46:07.971Z,17.82
2023-06-11T03:47:08.085Z,17.79
2023-06-11T03:48:07.998Z,17.78
2023-06-11T03:49:07.931Z,17.74
2023-06-11T03:50:07.908Z,17.72
2023-06-11T03:51:07.888Z,17.72
2023-06-11T03:52:07.878Z,17.74
2023-06-11T03:53:07.832Z,17.75
2023-06-11T03:54:07.858Z,17.78
2023-06-11T03:55:07.943Z,17.78
2023-06-11T03:56:07.838Z,17.79
2023-06-11T03:57:07.779Z,17.78
2023-06-11T03:58:07.788Z,17.79
2023-06-11T03:59:07.784Z,17.78
2023-06-11T04:00:07.790Z,17.78
2023-06-11T04:01:07.768Z,17.77
2023-06-11T04:02:07.790Z,17.81
2023-06-11T04:03:07.751Z,17.81
2023-06-11T04:04:07.764Z,17.84
2023-06-11T04:05:07.723Z,17.86
2023-06-11T04:06:07.733Z,17.87
2023-06-11T04:07:07.652Z,17.89
2023-06-11T04:08:07.660Z,17.92
2023-06-11T04:09:07.653Z,17.93
2023-06-11T04:10:07.652Z,17.95
2023-06-11T04:11:07.686Z,17.96
2023-06-11T04:12:07.623Z,17.97
2023-06-11T04:13:07.628Z,17.97
2023-06-11T04:14:07.570Z,18.00
2023-06-11T04:15:07.579Z,18.00
2023-06-11T04:16:07.664Z,18.02
2023-06-11T04:17:07.586Z,18.05
2023-06-11T04:18:07.574Z,18.07
2023-06-11T04:19:07.497Z,18.08
2023-06-11T04:20:07.496Z,18.10
2023-06-11T04:21:07.471Z,18.10
2023-06-11T04:22:07.461Z,18.10
2023-06-11T04:23:07.458Z,18.12
2023-06-11T04:24:09.500Z,18.12
2023-06-11T04:25:08.488Z,18.15
2023-06-11T04:26:07.432Z,18.15
2023-06-11T04:27:07.376Z,18.20
2023-06-11T04:28:07.407Z,18.18
2023-06-11T04:29:07.344Z,18.21
2023-06-11T04:30:07.362Z,18.25
2023-06-11T04:31:07.358Z,18.27
2023-06-11T04:32:07.331Z,18.30
2023-06-11T04:33:07.427Z,18.32
2023-06-11T04:34:07.312Z,18.32
2023-06-11T04:35:07.304Z,18.35
2023-06-11T04:36:07.302Z,18.37
2023-06-11T04:37:07.246Z,18.41
2023-06-11T04:38:07.262Z,18.42
2023-06-11T04:39:07.230Z,18.44
2023-06-11T04:40:07.223Z,18.47
2023-06-11T04:41:07.188Z,18.45
2023-06-11T04:42:07.199Z,18.50
2023-06-11T04:43:07.198Z,18.50
2023-06-11T04:44:07.194Z,18.52
2023-06-11T04:45:07.150Z,18.55
2023-06-11T04:46:07.203Z,18.57
2023-06-11T04:47:07.192Z,18.60
2023-06-11T04:48:07.190Z,18.63
2023-06-11T04:49:07.078Z,18.66
2023-06-11T04:50:07.171Z,18.69
2023-06-11T04:51:07.062Z,18.75
2023-06-11T04:52:07.074Z,18.75
2023-06-11T04:53:07.045Z,18.76
2023-06-11T04:54:07.054Z,18.78
2023-06-11T04:55:07.028Z,18.81
2023-06-11T04:56:07.034Z,18.82
2023-06-11T04:57:07.009Z,18.87
2023-06-11T04:58:06.995Z,18.87
2023-06-11T04:59:06.947Z,18.91
2023-06-11T05:00:06.973Z,18.94
2023-06-11T05:01:06.939Z,18.98
2023-06-11T05:02:06.954Z,19.02
2023-06-11T05:03:06.916Z,19.04
2023-06-11T05:04:06.909Z,19.06
2023-06-11T05:05:07.304Z,19.08
2023-06-11T05:06:06.922Z,19.13
2023-06-11T05:07:06.835Z,19.16
2023-06-11T05:08:06.856Z,19.18
2023-06-11T05:09:06.824Z,19.22
2023-06-11T05:10:06.838Z,19.25
2023-06-11T05:11:06.797Z,19.26
2023-06-11T05:12:06.826Z,19.29
2023-06-11T05:13:06.762Z,19.32
2023-06-11T05:14:07.360Z,19.37
2023-06-11T05:15:06.748Z,19.39
2023-06-11T05:16:06.785Z,19.41
2023-06-11T05:17:06.751Z,19.43
2023-06-11T05:18:06.761Z,19.47
2023-06-11T05:19:06.699Z,19.48
2023-06-11T05:20:06.688Z,19.55
2023-06-11T05:21:06.669Z,19.56
2023-06-11T05:22:06.692Z,19.59
2023-06-11T05:23:06.738Z,19.63
2023-06-11T05:24:06.734Z,19.65
2023-06-11T05:25:06.599Z,19.69
2023-06-11T05:26:06.649Z,19.73
2023-06-11T05:27:06.578Z,19.74
2023-06-11T05:28:06.610Z,19.77
2023-06-11T05:29:06.528Z,19.78
2023-06-11T05:30:06.589Z,19.80
2023-06-11T05:31:06.555Z,19.81
2023-06-11T05:32:06.707Z,19.83
2023-06-11T05:33:06.578Z,19.86
2023-06-11T05:34:06.464Z,19.87
2023-06-11T05:35:06.494Z,19.88
2023-06-11T05:36:06.455Z,19.94
2023-06-11T05:37:06.482Z,19.94
2023-06-11T05:38:06.426Z,19.96
2023-06-11T05:39:06.415Z,20.02
2023-06-11T05:40:07.025Z,20.05
2023-06-11T05:41:06.438Z,20.08
2023-06-11T05:42:06.392Z,20.13
2023-06-11T05:43:06.369Z,20.17
2023-06-11T05:44:06.326Z,20.21
2023-06-11T05:45:06.345Z,20.28
2023-06-11T05:46:06.405Z,20.32
2023-06-11T05:47:06.340Z,20.35
2023-06-11T05:48:06.331Z,20.39
2023-06-11T05:49:06.275Z,20.50
2023-06-11T05:50:06.288Z,20.55
2023-06-11T05:51:06.264Z,20.59
2023-06-11T05:52:06.275Z,20.62
2023-06-11T05:53:06.223Z,20.64
2023-06-11T05:54:06.231Z,20.67
2023-06-11T05:55:06.194Z,20.67
2023-06-11T05:56:06.529Z,20.72
2023-06-11T05:57:06.176Z,20.76
2023-06-11T05:58:06.207Z,20.77
2023-06-11T05:59:06.135Z,20.79
2023-06-11T06:00:06.155Z,20.80
2023-06-11T06:01:06.108Z,20.84
2023-06-11T06:02:06.198Z,20.88
2023-06-11T06:03:06.226Z,20.88
2023-06-11T06:04:06.256Z,20.92
2023-06-11T06:05:06.122Z,20.92
2023-06-11T06:06:06.069Z,20.95
2023-06-11T06:07:06.046Z,20.95
2023-06-11T06:08:06.042Z,20.95
2023-06-11T06:09:06.020Z,20.95
2023-06-11T06:10:06.041Z,21.01
2023-06-11T06:11:05.976Z,21.04
2023-06-11T06:12:06.029Z,21.06
2023-06-11T06:13:05.960Z,21.10
2023-06-11T06:14:05.961Z,21.13
2023-06-11T06:15:05.917Z,21.16
2023-06-11T06:16:06.281Z,21.21
2023-06-11T06:17:05.892Z,21.25
2023-06-11T06:18:05.968Z,21.29
2023-06-11T06:19:05.862Z,21.34
2023-06-11T06:20:05.886Z,21.37
2023-06-11T06:21:05.846Z,21.40
2023-06-11T06:22:05.876Z,21.44
2023-06-11T06:23:05.868Z,21.42
2023-06-11T06:24:05.937Z,21.43
2023-06-11T06:25:05.806Z,21.43
2023-06-11T06:26:05.794Z,21.44
2023-06-11T06:27:05.763Z,21.47
2023-06-11T06:28:05.848Z,21.46
2023-06-11T06:29:05.758Z,21.43
2023-06-11T06:30:05.736Z,21.38
2023-06-11T06:31:05.710Z,21.42
2023-06-11T06:32:05.845Z,21.46
2023-06-11T06:33:05.750Z,21.47
2023-06-11T06:34:05.728Z,21.49
2023-06-11T06:35:05.656Z,21.54
2023-06-11T06:36:05.674Z,21.59
2023-06-11T06:37:05.648Z,21.65
2023-06-11T06:38:05.638Z,21.71
2023-06-11T06:39:05.646Z,21.79
2023-06-11T06:40:05.630Z,21.82
2023-06-11T06:41:05.585Z,21.84
2023-06-11T06:42:05.585Z,21.86
2023-06-11T06:43:05.547Z,21.90
2023-06-11T06:44:05.625Z,21.94
2023-06-11T06:45:05.540Z,21.98
2023-06-11T06:46:05.636Z,22.00
2023-06-11T06:47:05.511Z,22.03
2023-06-11T06:48:05.570Z,22.05
2023-06-11T06:49:05.564Z,22.03
2023-06-11T06:50:05.503Z,22.06
2023-06-11T06:51:05.479Z,22.07
2023-06-11T06:52:05.457Z,22.09
2023-06-11T06:53:05.450Z,22.09
2023-06-11T06:54:05.427Z,22.12
2023-06-11T06:55:05.416Z,22.17
2023-06-11T06:56:05.409Z,22.18
2023-06-11T06:57:05.383Z,22.18
2023-06-11T06:58:05.413Z,22.20
2023-06-11T06:59:05.339Z,22.21
2023-06-11T07:00:05.367Z,22.27
2023-06-11T07:01:05.367Z,22.30
2023-06-11T07:02:07.945Z,22.36
2023-06-11T07:03:05.345Z,22.40
2023-06-11T07:04:05.295Z,22.52
2023-06-11T07:05:05.288Z,22.55
2023-06-11T07:06:05.353Z,22.62
2023-06-11T07:07:05.259Z,22.60
2023-06-11T07:08:05.245Z,22.62
2023-06-11T07:09:05.309Z,22.62
2023-06-11T07:10:05.252Z,22.67
2023-06-11T07:11:05.184Z,22.70
2023-06-11T07:12:05.222Z,22.72
2023-06-11T07:13:05.150Z,22.76
2023-06-11T07:14:05.177Z,22.82
2023-06-11T07:15:05.155Z,22.88
2023-06-11T07:16:05.245Z,22.92
2023-06-11T07:17:05.116Z,22.95
2023-06-11T07:18:05.836Z,23.00
2023-06-11T07:19:05.081Z,23.04
2023-06-11T07:20:05.110Z,23.07
2023-06-11T07:21:05.095Z,23.02
2023-06-11T07:22:05.055Z,23.04
2023-06-11T07:23:05.026Z,23.04
2023-06-11T07:24:05.137Z,23.09
2023-06-11T07:25:04.985Z,23.07
2023-06-11T07:26:05.007Z,23.05
2023-06-11T07:27:04.988Z,23.10
2023-06-11T07:28:04.983Z,23.12
2023-06-11T07:29:04.977Z,23.15
2023-06-11T07:30:04.981Z,23.17
2023-06-11T07:31:05.009Z,23.25
2023-06-11T07:32:04.940Z,23.31
2023-06-11T07:33:04.966Z,23.36
2023-06-11T07:34:04.906Z,23.39
2023-06-11T07:35:04.895Z,23.38
2023-06-11T07:36:04.884Z,23.42
2023-06-11T07:37:04.847Z,23.47
2023-06-11T07:38:04.870Z,23.51
2023-06-11T07:39:04.878Z,23.48
2023-06-11T07:40:04.823Z,23.46
2023-06-11T07:41:04.793Z,23.47
2023-06-11T07:42:04.796Z,23.50
2023-06-11T07:43:04.768Z,23.51
2023-06-11T07:44:04.776Z,23.57
2023-06-11T07:45:04.823Z,23.58
2023-06-11T07:46:04.773Z,23.61
2023-06-11T07:47:04.798Z,23.68
2023-06-11T07:48:04.739Z,23.72
2023-06-11T07:49:04.687Z,23.75
2023-06-11T07:50:04.743Z,23.80
2023-06-11T07:51:04.703Z,23.90
2023-06-11T07:52:04.668Z,24.00
2023-06-11T07:53:04.623Z,24.10
2023-06-11T07:54:04.785Z,24.21
2023-06-11T07:55:04.591Z,24.32
2023-06-11T07:56:04.612Z,24.40
2023-06-11T07:57:04.599Z,24.49
2023-06-11T07:58:04.604Z,24.52
2023-06-11T07:59:04.548Z,24.58
2023-06-11T08:00:04.545Z,24.67
2023-06-11T08:01:04.515Z,24.80
2023-06-11T08:02:04.553Z,24.91
2023-06-11T08:03:04.513Z,25.06
2023-06-11T08:04:04.525Z,25.14
2023-06-11T08:05:04.475Z,25.21
2023-06-11T08:06:04.469Z,25.21
2023-06-11T08:07:04.455Z,25.13
2023-06-11T08:08:04.501Z,25.06
2023-06-11T08:09:04.413Z,25.15
2023-06-11T08:10:04.469Z,25.25
2023-06-11T08:11:04.384Z,25.35
2023-06-11T08:12:04.394Z,25.38
2023-06-11T08:13:04.379Z,25.32
2023-06-11T08:14:04.381Z,25.33
2023-06-11T08:15:04.321Z,25.38
2023-06-11T08:16:04.354Z,25.40
2023-06-11T08:17:04.440Z,25.42
2023-06-11T08:18:04.351Z,25.40
2023-06-11T08:19:04.327Z,25.40
2023-06-11T08:20:04.291Z,25.39
2023-06-11T08:21:04.254Z,25.45
2023-06-11T08:22:04.292Z,25.55
2023-06-11T08:23:04.246Z,25.62
2023-06-11T08:24:04.336Z,25.61
2023-06-11T08:25:04.208Z,25.47
2023-06-11T08:26:04.236Z,25.51
2023-06-11T08:27:04.165Z,25.57
2023-06-11T08:28:04.206Z,25.55
2023-06-11T08:29:04.772Z,25.58
2023-06-11T08:30:04.156Z,25.79
2023-06-11T08:31:04.155Z,25.94
2023-06-11T08:32:04.166Z,25.92
2023-06-11T08:33:04.130Z,25.94
2023-06-11T08:34:04.108Z,25.88
2023-06-11T08:35:04.102Z,25.85
2023-06-11T08:36:04.069Z,25.94
2023-06-11T08:37:04.030Z,25.98
2023-06-11T08:38:04.075Z,26.01
2023-06-11T08:39:04.041Z,26.10
2023-06-11T08:40:04.017Z,26.18
2023-06-11T08:41:03.977Z,26.28
2023-06-11T08:42:03.987Z,26.30
2023-06-11T08:43:03.954Z,26.17
2023-06-11T08:44:04.002Z,26.01
2023-06-11T08:45:03.969Z,26.01
2023-06-11T08:46:03.979Z,26.09
2023-06-11T08:47:04.686Z,26.18
2023-06-11T08:48:03.991Z,26.12
2023-06-11T08:49:03.906Z,26.01
2023-06-11T08:50:03.925Z,25.92
2023-06-11T08:51:03.869Z,26.06
2023-06-11T08:52:03.853Z,26.25
2023-06-11T08:53:03.809Z,26.32
2023-06-11T08:54:03.882Z,26.29
2023-06-11T08:55:03.875Z,26.25
2023-06-11T08:56:03.857Z,26.20
2023-06-11T08:57:03.772Z,26.10
2023-06-11T08:58:03.795Z,26.06
2023-06-11T08:59:03.812Z,25.92
2023-06-11T09:00:03.767Z,25.88
2023-06-11T09:01:03.739Z,25.79
2023-06-11T09:02:03.854Z,25.88
2023-06-11T09:03:03.781Z,26.05
2023-06-11T09:04:03.742Z,26.09
2023-06-11T09:05:03.670Z,26.15
2023-06-11T09:06:03.738Z,26.15
2023-06-11T09:07:03.667Z,26.05
2023-06-11T09:08:03.641Z,25.82
2023-06-11T09:09:03.618Z,25.90
2023-06-11T09:10:03.648Z,26.05
2023-06-11T09:11:03.592Z,26.28
2023-06-11T09:12:03.641Z,26.26
2023-06-11T09:13:03.561Z,26.43
2023-06-11T09:14:03.588Z,26.45
2023-06-11T09:15:03.567Z,26.44
2023-06-11T09:16:03.588Z,26.37
2023-06-11T09:17:03.546Z,26.40
2023-06-11T09:18:03.600Z,26.52
2023-06-11T09:19:03.503Z,26.67
2023-06-11T09:20:03.532Z,26.81
2023-06-11T09:21:03.492Z,26.87
2023-06-11T09:22:03.498Z,26.82
2023-06-11T09:23:03.444Z,26.94
2023-06-11T09:24:03.528Z,27.19
2023-06-11T09:25:03.423Z,27.46
2023-06-11T09:26:03.463Z,27.74
2023-06-11T09:27:03.402Z,27.94
2023-06-11T09:28:03.394Z,28.06
2023-06-11T09:29:03.354Z,28.11
2023-06-11T09:30:03.392Z,28.03
2023-06-11T09:31:03.342Z,27.55
2023-06-11T09:32:07.659Z,27.27
2023-06-11T09:33:03.414Z,27.02
2023-06-11T09:34:03.312Z,26.76
2023-06-11T09:35:03.276Z,26.65
2023-06-11T09:36:03.294Z,26.66
2023-06-11T09:37:03.257Z,26.75
2023-06-11T09:38:03.250Z,26.81
2023-06-11T09:39:03.251Z,27.02
2023-06-11T09:40:03.245Z,27.19
2023-06-11T09:41:03.214Z,27.21
2023-06-11T09:42:03.206Z,27.43
2023-06-11T09:43:03.200Z,27.57
2023-06-11T09:44:03.185Z,27.62
2023-06-11T09:45:03.175Z,27.59
2023-06-11T09:46:03.305Z,27.44
2023-06-11T09:47:03.745Z,27.32
2023-06-11T09:48:03.245Z,27.29
2023-06-11T09:49:03.093Z,27.31
2023-06-11T09:50:03.224Z,27.37
2023-06-11T09:51:03.085Z,27.41
2023-06-11T09:52:03.092Z,27.29
2023-06-11T09:53:03.055Z,27.24
2023-06-11T09:54:03.048Z,27.21
2023-06-11T09:55:03.071Z,27.34
2023-06-11T09:56:11.048Z,27.55
2023-06-11T09:57:03.031Z,27.63
2023-06-11T09:58:03.004Z,27.63
2023-06-11T09:59:02.966Z,27.66
2023-06-11T10:00:02.998Z,27.78
2023-06-11T10:01:05.633Z,28.00
2023-06-11T10:02:02.962Z,28.07
2023-06-11T10:03:02.986Z,27.99
2023-06-11T10:04:02.979Z,28.12
2023-06-11T10:05:02.941Z,28.17
2023-06-11T10:06:02.916Z,28.21
2023-06-11T10:07:02.893Z,28.02
2023-06-11T10:08:02.841Z,27.94
2023-06-11T10:09:02.851Z,27.94
2023-06-11T10:10:02.854Z,27.94
2023-06-11T10:11:02.860Z,27.82
2023-06-11T10:12:02.847Z,27.74
2023-06-11T10:13:02.854Z,27.77
2023-06-11T10:14:02.784Z,27.77
2023-06-11T10:15:02.811Z,27.69
2023-06-11T10:16:02.784Z,27.63
2023-06-11T10:17:02.758Z,27.59
2023-06-11T10:18:02.783Z,27.55
2023-06-11T10:19:02.730Z,27.60
2023-06-11T10:20:02.731Z,27.57
2023-06-11T10:21:02.747Z,27.50
2023-06-11T10:22:02.672Z,27.63
2023-06-11T10:23:04.682Z,27.79
2023-06-11T10:24:02.686Z,27.96
2023-06-11T10:25:02.682Z,28.14
2023-06-11T10:26:02.632Z,28.24
2023-06-11T10:27:02.726Z,28.41
2023-06-11T10:28:02.585Z,28.62
2023-06-11T10:29:03.809Z,28.76
2023-06-11T10:30:02.566Z,28.78
2023-06-11T10:31:02.591Z,28.73
2023-06-11T10:32:02.532Z,28.64
2023-06-11T10:33:02.661Z,28.56
2023-06-11T10:34:02.596Z,28.39
2023-06-11T10:35:02.652Z,28.19
2023-06-11T10:36:02.524Z,28.07
2023-06-11T10:37:02.496Z,27.97
2023-06-11T10:38:02.494Z,27.84
2023-06-11T10:39:02.497Z,27.78
2023-06-11T10:40:02.444Z,27.81
2023-06-11T10:41:02.483Z,27.93
2023-06-11T10:42:02.405Z,28.06
2023-06-11T10:43:02.417Z,28.11
2023-06-11T10:44:02.433Z,28.15
2023-06-11T10:45:03.179Z,28.15
2023-06-11T10:46:02.418Z,28.12
2023-06-11T10:47:02.646Z,28.07
2023-06-11T10:48:02.405Z,28.02
2023-06-11T10:49:02.353Z,27.99
2023-06-11T10:50:02.325Z,28.03
2023-06-11T10:51:02.322Z,28.15
2023-06-11T10:52:02.314Z,28.31
2023-06-11T10:53:02.303Z,28.40
2023-06-11T10:54:02.260Z,28.37
2023-06-11T10:55:02.274Z,28.41
2023-06-11T10:56:02.266Z,28.44
2023-06-11T10:57:02.244Z,28.40
2023-06-11T10:58:02.214Z,28.31
2023-06-11T10:59:02.210Z,28.39
2023-06-11T11:00:02.184Z,28.48
2023-06-11T11:01:02.216Z,28.56
2023-06-11T11:02:02.252Z,28.64
2023-06-11T11:03:02.264Z,28.77
2023-06-11T11:04:02.262Z,28.85
2023-06-11T11:05:02.144Z,28.85
2023-06-11T11:06:02.128Z,28.68
2023-06-11T11:07:02.115Z,28.55
2023-06-11T11:08:02.108Z,28.51
2023-06-11T11:09:02.068Z,28.48
2023-06-11T11:10:02.075Z,28.48
2023-06-11T11:11:02.101Z,28.43
2023-06-11T11:12:02.032Z,28.46
2023-06-11T11:13:02.046Z,28.56
2023-06-11T11:14:02.350Z,28.68
2023-06-11T11:15:02.014Z,28.86
2023-06-11T11:16:01.987Z,28.95
2023-06-11T11:17:02.571Z,28.92
2023-06-11T11:18:01.954Z,28.78
2023-06-11T11:19:01.949Z,28.64
2023-06-11T11:20:01.906Z,28.48
2023-06-11T11:21:01.953Z,28.40
2023-06-11T11:22:01.943Z,28.43
2023-06-11T11:23:01.883Z,28.54
2023-06-11T11:24:01.945Z,28.64
2023-06-11T11:25:01.864Z,28.74
2023-06-11T11:26:01.829Z,28.83
2023-06-11T11:27:01.842Z,28.89
2023-06-11T11:28:01.846Z,28.81
2023-06-11T11:29:01.859Z,28.83
2023-06-11T11:30:03.645Z,28.88
2023-06-11T11:31:01.794Z,28.98
2023-06-11T11:32:01.809Z,29.06
2023-06-11T11:33:01.817Z,29.05
2023-06-11T11:34:01.753Z,28.92
2023-06-11T11:35:01.765Z,28.85
2023-06-11T11:36:03.163Z,28.81
2023-06-11T11:37:01.747Z,28.83
2023-06-11T11:38:01.669Z,28.92
2023-06-11T11:39:01.704Z,28.95
2023-06-11T11:40:01.705Z,28.89
2023-06-11T11:41:01.662Z,28.83
2023-06-11T11:42:03.012Z,28.83
2023-06-11T11:43:01.640Z,28.83
2023-06-11T11:44:01.635Z,28.81
2023-06-11T11:45:01.649Z,28.74
2023-06-11T11:46:01.725Z,28.77
2023-06-11T11:47:01.584Z,28.80
2023-06-11T11:48:04.425Z,28.76
2023-06-11T11:49:01.578Z,28.67
2023-06-11T11:50:01.587Z,28.61
2023-06-11T11:51:01.544Z,28.66
2023-06-11T11:52:01.512Z,28.61
2023-06-11T11:53:01.526Z,28.59
2023-06-11T11:54:03.659Z,28.55
2023-06-11T11:55:01.483Z,28.55
2023-06-11T11:56:06.604Z,28.58
2023-06-11T11:57:01.500Z,28.56
2023-06-11T11:58:01.414Z,28.52
2023-06-11T11:59:01.418Z,28.59
2023-06-11T12:00:01.418Z,28.66
2023-06-11T12:01:01.400Z,28.85
2023-06-11T12:02:01.368Z,29.06
2023-06-11T12:03:01.478Z,29.16
2023-06-11T12:04:01.418Z,29.19
2023-06-11T12:05:01.337Z,29.27
2023-06-11T12:06:01.401Z,29.31
2023-06-11T12:07:01.308Z,29.37
2023-06-11T12:08:01.301Z,29.51
2023-06-11T12:09:01.305Z,29.63
2023-06-11T12:10:03.747Z,29.68
2023-06-11T12:11:01.275Z,29.60
2023-06-11T12:12:05.547Z,29.52
2023-06-11T12:13:01.264Z,29.45
2023-06-11T12:14:01.190Z,29.39
2023-06-11T12:15:01.229Z,29.34
2023-06-11T12:16:04.107Z,29.36
2023-06-11T12:17:01.364Z,29.48
2023-06-11T12:18:01.229Z,29.51
2023-06-11T12:19:14.385Z,29.37
2023-06-11T12:20:01.126Z,29.23
2023-06-11T12:21:01.126Z,29.19
2023-06-11T12:22:01.099Z,29.21
2023-06-11T12:23:01.104Z,29.19
2023-06-11T12:24:01.230Z,29.14
2023-06-11T12:25:01.109Z,28.95
2023-06-11T12:26:01.039Z,28.90
2023-06-11T12:27:04.230Z,29.00
2023-06-11T12:28:01.034Z,29.12
2023-06-11T12:29:01.044Z,29.21
2023-06-11T12:30:01.027Z,29.26
2023-06-11T12:31:01.011Z,29.31
2023-06-11T12:32:01.003Z,29.42
2023-06-11T12:33:01.058Z,29.51
2023-06-11T12:34:00.964Z,29.55
2023-06-11T12:35:00.965Z,29.64
2023-06-11T12:36:00.954Z,29.68
2023-06-11T12:37:00.925Z,29.67
2023-06-11T12:38:00.902Z,29.65
2023-06-11T12:39:00.929Z,29.63
2023-06-11T12:40:00.883Z,29.57
2023-06-11T12:41:00.918Z,29.46
2023-06-11T12:42:00.839Z,29.51
2023-06-11T12:43:01.029Z,29.53
2023-06-11T12:44:00.810Z,29.51
2023-06-11T12:45:00.849Z,29.53
2023-06-11T12:46:00.849Z,29.57
2023-06-11T12:47:00.859Z,29.58
2023-06-11T12:48:00.778Z,29.67
2023-06-11T12:49:00.797Z,29.76
2023-06-11T12:50:00.763Z,29.85
2023-06-11T12:51:00.760Z,29.87
2023-06-11T12:52:00.710Z,29.89